createdAt,value
2022-09-07T00:00:42.372Z,18.12
2022-09-07T00:03:09.863Z,18.22
2022-09-07T00:05:43.965Z,18.15
2022-09-07T00:08:12.135Z,18.13
2022-09-07T00:10:39.191Z,18.10
2022-09-07T00:13:07.892Z,18.16
2022-09-07T00:15:39.423Z,18.15
2022-09-07T00:18:05.955Z,18.19
2022-09-07T00:20:32.418Z,18.25
2022-09-07T00:22:58.868Z,18.06
2022-09-07T00:25:25.322Z,18.25
2022-09-07T00:27:51.788Z,18.19
2022-09-07T00:30:18.457Z,18.10
2022-09-07T00:32:45.027Z,18.05
2022-09-07T00:35:12.636Z,18.02
2022-09-07T00:37:39.122Z,17.98
2022-09-07T00:40:06.241Z,17.98
2022-09-07T00:42:32.816Z,18.08
2022-09-07T00:45:06.849Z,18.08
2022-09-07T00:47:42.561Z,18.17
2022-09-07T00:50:32.993Z,18.19
2022-09-07T00:53:07.053Z,18.04
2022-09-07T00:55:35.967Z,18.04
2022-09-07T00:58:03.415Z,18.05
2022-09-07T01:00:31.139Z,18.10
2022-09-07T01:02:59.773Z,17.95
2022-09-07T01:05:46.333Z,17.99
2022-09-07T01:08:14.071Z,17.98
2022-09-07T01:10:40.765Z,17.94
2022-09-07T01:13:07.695Z,18.02
2022-09-07T01:15:51.756Z,17.96
2022-09-07T01:18:31.935Z,17.99
2022-09-07T01:21:14.181Z,17.99
2022-09-07T01:24:07.836Z,17.94
2022-09-07T01:26:49.436Z,17.95
2022-09-07T01:29:28.347Z,17.89
2022-09-07T01:32:02.670Z,17.98
2022-09-07T01:34:29.094Z,18.01
2022-09-07T01:37:27.520Z,18.06
2022-09-07T01:39:58.734Z,17.95
2022-09-07T01:42:32.470Z,17.88
2022-09-07T01:45:02.184Z,17.92
2022-09-07T01:47:41.312Z,17.92
2022-09-07T01:50:27.012Z,17.91
2022-09-07T01:52:57.096Z,17.89
2022-09-07T01:55:46.771Z,17.99
2022-09-07T01:58:31.484Z,17.86
2022-09-07T02:01:08.243Z,17.98
2022-09-07T02:03:46.713Z,17.81
2022-09-07T02:06:42.266Z,17.83
2022-09-07T02:09:30.392Z,17.83
2022-09-07T02:11:57.517Z,17.86
2022-09-07T02:14:41.106Z,17.86
2022-09-07T02:17:20.348Z,17.78
2022-09-07T02:19:54.177Z,17.86
2022-09-07T02:22:27.199Z,17.86
2022-09-07T02:24:59.813Z,17.94
2022-09-07T02:27:52.698Z,17.83
2022-09-07T02:30:19.621Z,17.79
2022-09-07T02:32:46.218Z,17.74
2022-09-07T02:35:13.255Z,17.71
2022-09-07T02:37:41.314Z,17.64
2022-09-07T02:40:08.839Z,17.62
2022-09-07T02:42:37.175Z,17.59
2022-09-07T02:45:07.536Z,17.57
2022-09-07T02:47:46.050Z,17.57
2022-09-07T02:50:46.717Z,17.57
2022-09-07T02:53:13.108Z,17.62
2022-09-07T02:55:55.591Z,17.54
2022-09-07T02:58:49.412Z,17.53
2022-09-07T03:01:35.566Z,17.44
2022-09-07T03:04:13.639Z,17.50
2022-09-07T03:06:55.145Z,17.50
2022-09-07T03:09:28.343Z,17.47
2022-09-07T03:11:55.259Z,17.44
2022-09-07T03:14:24.773Z,17.53
2022-09-07T03:16:53.733Z,17.51
2022-09-07T03:19:20.228Z,17.38
2022-09-07T03:21:47.353Z,17.41
2022-09-07T03:24:13.884Z,17.46
2022-09-07T03:26:44.461Z,17.40
2022-09-07T03:29:10.982Z,17.37
2022-09-07T03:31:37.882Z,17.34
2022-09-07T03:34:04.459Z,17.31
2022-09-07T03:36:31.831Z,17.26
2022-09-07T03:38:59.451Z,17.26
2022-09-07T03:41:27.655Z,17.33
2022-09-07T03:43:54.887Z,17.23
2022-09-07T03:46:21.543Z,17.26
2022-09-07T03:48:49.816Z,17.27
2022-09-07T03:51:18.175Z,17.26
2022-09-07T03:53:46.300Z,17.23
2022-09-07T03:56:18.751Z,17.23
2022-09-07T03:58:46.585Z,17.21
2022-09-07T04:01:15.924Z,17.29
2022-09-07T04:03:44.239Z,17.19
2022-09-07T04:06:11.235Z,17.24
2022-09-07T04:08:39.001Z,17.31
2022-09-07T04:11:06.974Z,17.27
2022-09-07T04:13:35.652Z,17.26
2022-09-07T04:16:11.043Z,17.21
2022-09-07T04:18:37.968Z,17.27
2022-09-07T04:21:04.447Z,17.41
2022-09-07T04:23:30.989Z,17.43
2022-09-07T04:25:57.826Z,17.31
2022-09-07T04:28:24.246Z,17.16
2022-09-07T04:30:50.743Z,17.34
2022-09-07T04:33:17.286Z,17.26
2022-09-07T04:35:43.804Z,17.34
2022-09-07T04:38:14.566Z,17.34
2022-09-07T04:40:41.301Z,17.36
2022-09-07T04:43:09.553Z,17.33
2022-09-07T04:45:37.231Z,17.33
2022-09-07T04:48:04.318Z,17.29
2022-09-07T04:50:31.067Z,17.21
2022-09-07T04:52:57.615Z,17.23
2022-09-07T04:55:24.311Z,17.16
2022-09-07T04:57:50.945Z,17.14
2022-09-07T05:00:17.651Z,17.10
2022-09-07T05:02:44.132Z,17.13
2022-09-07T05:05:10.691Z,17.13
2022-09-07T05:07:37.187Z,17.07
2022-09-07T05:10:04.023Z,17.07
2022-09-07T05:12:30.457Z,17.11
2022-09-07T05:14:57.193Z,17.16
2022-09-07T05:17:24.786Z,17.11
2022-09-07T05:19:51.215Z,17.20
2022-09-07T05:22:17.942Z,17.23
2022-09-07T05:24:44.516Z,17.26
2022-09-07T05:27:10.932Z,17.11
2022-09-07T05:32:23.895Z,17.20
2022-09-07T05:34:52.906Z,17.16
2022-09-07T05:37:19.671Z,17.14
2022-09-07T05:39:46.138Z,17.04
2022-09-07T05:42:12.685Z,17.03
2022-09-07T05:47:08.797Z,17.06
2022-09-07T05:49:35.439Z,16.95
2022-09-07T05:52:02.206Z,16.90
2022-09-07T05:54:28.625Z,16.95
2022-09-07T05:56:55.110Z,16.96
2022-09-07T05:59:21.838Z,16.99
2022-09-07T06:01:48.759Z,16.99
2022-09-07T06:04:15.420Z,17.00
2022-09-07T06:06:43.398Z,17.04
2022-09-07T06:09:14.520Z,17.09
2022-09-07T06:11:41.082Z,17.14
2022-09-07T06:14:07.531Z,17.20
2022-09-07T06:16:34.948Z,17.21
2022-09-07T06:19:06.468Z,17.31
2022-09-07T06:21:36.961Z,17.41
2022-09-07T06:24:04.567Z,17.34
2022-09-07T06:26:31.022Z,17.38
2022-09-07T06:28:58.071Z,17.43
2022-09-07T06:32:45.594Z,17.64
2022-09-07T06:35:13.126Z,17.75
2022-09-07T06:37:40.000Z,17.82
2022-09-07T06:40:07.818Z,17.79
2022-09-07T06:42:34.563Z,17.88
2022-09-07T06:45:01.430Z,17.94
2022-09-07T06:47:28.321Z,17.98
2022-09-07T06:49:54.739Z,18.20
2022-09-07T06:52:21.306Z,18.41
2022-09-07T06:55:03.412Z,18.37
2022-09-07T06:57:30.012Z,18.19
2022-09-07T06:59:56.516Z,18.43
2022-09-07T07:02:22.969Z,18.60
2022-09-07T07:04:49.939Z,18.77
2022-09-07T07:07:16.505Z,18.40
2022-09-07T07:09:43.050Z,18.33
2022-09-07T07:12:10.961Z,18.39
2022-09-07T07:14:39.869Z,18.50
2022-09-07T07:17:08.427Z,18.53
2022-09-07T07:19:34.942Z,18.56
2022-09-07T07:22:14.488Z,18.58
2022-09-07T07:24:47.986Z,18.64
2022-09-07T07:27:14.588Z,18.68
2022-09-07T07:29:41.088Z,19.22
2022-09-07T07:32:07.564Z,20.49
2022-09-07T07:34:34.183Z,20.62
2022-09-07T07:37:00.681Z,20.35
2022-09-07T07:42:13.989Z,20.99
2022-09-07T07:44:40.506Z,22.12
2022-09-07T07:47:07.082Z,23.19
2022-09-07T07:49:33.737Z,23.69
2022-09-07T07:54:46.893Z,22.80
2022-09-07T07:57:13.828Z,22.74
2022-09-07T07:59:40.545Z,22.97
2022-09-07T08:02:10.094Z,22.88
2022-09-07T08:04:36.902Z,23.35
2022-09-07T08:07:09.697Z,21.78
2022-09-07T08:09:42.186Z,21.09
2022-09-07T08:12:11.211Z,21.82
2022-09-07T08:14:41.349Z,22.05
2022-09-07T08:17:11.993Z,23.15
2022-09-07T08:19:39.301Z,24.20
2022-09-07T08:22:06.169Z,22.99
2022-09-07T08:24:32.920Z,22.36
2022-09-07T08:26:59.745Z,22.26
2022-09-07T08:29:27.252Z,22.66
2022-09-07T08:31:54.164Z,23.63
2022-09-07T08:34:21.882Z,23.58
2022-09-07T08:36:48.521Z,24.35
2022-09-07T08:39:15.200Z,22.51
2022-09-07T08:42:06.722Z,22.09
2022-09-07T08:44:55.181Z,22.13
2022-09-07T08:47:30.714Z,22.76
2022-09-07T08:50:23.219Z,22.39
2022-09-07T08:53:01.444Z,22.27
2022-09-07T08:55:36.423Z,22.51
2022-09-07T08:58:45.382Z,23.28
2022-09-07T09:04:16.670Z,22.36
2022-09-07T09:06:49.953Z,22.66
2022-09-07T09:09:40.170Z,22.33
2022-09-07T09:12:26.542Z,23.41
2022-09-07T09:15:18.188Z,23.15
2022-09-07T09:18:15.209Z,24.05
2022-09-07T09:20:55.887Z,26.18
2022-09-07T09:23:42.365Z,27.39
2022-09-07T09:26:21.099Z,26.39
2022-09-07T09:28:47.749Z,26.97
2022-09-07T09:31:23.452Z,25.71
2022-09-07T09:34:14.723Z,27.59
2022-09-07T09:36:52.629Z,29.05
2022-09-07T09:39:32.727Z,28.13
2022-09-07T09:42:14.504Z,28.94
2022-09-07T09:44:42.782Z,26.14
2022-09-07T09:47:41.530Z,27.65
2022-09-07T09:53:25.437Z,28.19
2022-09-07T09:55:53.893Z,27.71
2022-09-07T10:01:33.533Z,30.46
2022-09-07T10:04:23.961Z,28.95
2022-09-07T10:06:55.989Z,29.15
2022-09-07T10:09:26.212Z,27.88
2022-09-07T10:12:05.740Z,28.85
2022-09-07T10:14:41.745Z,29.60
2022-09-07T10:17:14.848Z,28.34
2022-09-07T10:19:43.325Z,27.57
2022-09-07T10:22:21.844Z,25.73
2022-09-07T10:24:48.786Z,26.15
2022-09-07T10:27:38.577Z,26.74
2022-09-07T10:30:14.864Z,24.95
2022-09-07T10:32:50.337Z,25.91
2022-09-07T10:35:29.847Z,26.15
2022-09-07T10:38:05.206Z,28.91
2022-09-07T10:41:00.147Z,29.86
2022-09-07T10:43:59.684Z,28.58
2022-09-07T10:47:20.960Z,28.13
2022-09-07T10:53:04.070Z,27.75
2022-09-07T10:55:42.933Z,28.40
2022-09-07T11:01:35.928Z,31.03
2022-09-07T11:04:35.815Z,28.85
2022-09-07T11:07:20.766Z,29.50
2022-09-07T11:10:03.340Z,27.59
2022-09-07T11:12:39.174Z,29.20
2022-09-07T11:15:23.692Z,31.13
2022-09-07T11:17:59.771Z,32.20
2022-09-07T11:20:44.494Z,32.62
2022-09-07T11:23:31.545Z,30.35
2022-09-07T11:26:14.830Z,26.55
2022-09-07T11:29:32.143Z,28.03
2022-09-07T11:32:07.234Z,28.23
2022-09-07T11:34:38.830Z,26.49
2022-09-07T11:37:30.934Z,25.04
2022-09-07T11:40:21.561Z,25.00
2022-09-07T11:43:00.183Z,24.69
2022-09-07T11:45:29.624Z,24.81
2022-09-07T11:48:01.418Z,24.89
2022-09-07T11:50:32.433Z,26.65
2022-09-07T11:53:07.121Z,28.50
2022-09-07T11:55:45.154Z,29.40
2022-09-07T11:58:35.302Z,29.47
2022-09-07T12:01:19.209Z,28.61
2022-09-07T12:04:04.275Z,27.76
2022-09-07T12:07:05.502Z,28.98
2022-09-07T12:09:50.050Z,29.91
2022-09-07T12:12:38.364Z,29.69
2022-09-07T12:15:31.151Z,28.63
2022-09-07T12:18:31.876Z,27.86
2022-09-07T12:20:58.571Z,25.99
2022-09-07T12:23:29.317Z,25.95
2022-09-07T12:26:30.922Z,25.41
2022-09-07T12:28:57.369Z,26.12
2022-09-07T12:32:53.642Z,28.64
2022-09-07T12:34:54.132Z,27.57
2022-09-07T12:37:26.695Z,25.20
2022-09-07T12:40:27.090Z,26.25
2022-09-07T12:43:12.304Z,26.88
2022-09-07T12:45:38.729Z,27.03
2022-09-07T12:48:17.342Z,27.30
2022-09-07T12:51:04.369Z,27.46
2022-09-07T12:53:41.621Z,27.71
2022-09-07T12:56:18.444Z,28.52
2022-09-07T12:59:19.590Z,28.17
2022-09-07T13:02:07.737Z,28.54
2022-09-07T13:04:37.005Z,28.77
2022-09-07T13:07:40.807Z,27.55
2022-09-07T13:10:43.669Z,27.45
2022-09-07T13:13:16.195Z,27.71
2022-09-07T13:16:13.831Z,27.75
2022-09-07T13:18:46.355Z,26.35
2022-09-07T13:21:14.592Z,25.75
2022-09-07T13:26:58.453Z,25.92
2022-09-07T13:29:43.184Z,26.08
2022-09-07T13:32:11.644Z,26.16
2022-09-07T13:35:23.545Z,26.95
2022-09-07T13:37:58.093Z,27.08
2022-09-07T13:40:28.086Z,26.80
2022-09-07T13:42:56.952Z,27.08
2022-09-07T13:45:54.500Z,27.38
2022-09-07T13:48:42.069Z,29.50
2022-09-07T13:51:16.976Z,31.03
2022-09-07T13:54:15.524Z,30.83
2022-09-07T13:57:03.047Z,29.56
2022-09-07T13:59:33.853Z,28.51
2022-09-07T14:02:01.382Z,28.60
2022-09-07T14:04:36.919Z,30.27
2022-09-07T14:07:13.231Z,31.51
2022-09-07T14:09:40.263Z,32.39
2022-09-07T14:12:21.289Z,30.73
2022-09-07T14:15:30.428Z,31.04
2022-09-07T14:18:05.823Z,30.59
2022-09-07T14:20:41.689Z,29.91
2022-09-07T14:23:29.759Z,28.30
2022-09-07T14:26:20.341Z,28.52
2022-09-07T14:28:49.076Z,29.12
2022-09-07T14:31:18.169Z,30.08
2022-09-07T14:33:53.174Z,29.05
2022-09-07T14:36:45.325Z,28.81
2022-09-07T14:39:14.993Z,28.40
2022-09-07T14:41:43.061Z,28.96
2022-09-07T14:44:40.423Z,28.14
2022-09-07T14:47:29.225Z,28.33
2022-09-07T14:49:58.224Z,28.65
2022-09-07T14:52:34.963Z,28.13
2022-09-07T14:55:20.034Z,27.76
2022-09-07T14:57:46.543Z,28.14
2022-09-07T15:00:43.207Z,28.39
2022-09-07T15:03:33.215Z,28.40
2022-09-07T15:06:01.463Z,28.47
2022-09-07T15:08:40.246Z,28.51
2022-09-07T15:14:11.397Z,27.61
2022-09-07T15:16:41.394Z,27.66
2022-09-07T15:19:18.369Z,27.88
2022-09-07T15:21:45.342Z,28.36
2022-09-07T15:24:12.149Z,29.05
2022-09-07T15:29:29.114Z,30.18
2022-09-07T15:32:03.447Z,30.72
2022-09-07T15:34:32.121Z,30.58
2022-09-07T15:37:01.404Z,30.01
2022-09-07T15:39:30.075Z,30.52
2022-09-07T15:41:58.222Z,30.58
2022-09-07T15:44:28.332Z,30.53
2022-09-07T15:49:49.294Z,30.92
2022-09-07T15:52:17.312Z,30.15
2022-09-07T15:54:43.948Z,29.50
2022-09-07T15:59:57.567Z,29.65
2022-09-07T16:05:11.002Z,30.23
2022-09-07T16:10:24.453Z,29.77
2022-09-07T16:15:45.651Z,28.85
2022-09-07T16:18:16.584Z,28.39
2022-09-07T16:20:43.577Z,27.93
2022-09-07T16:23:13.654Z,27.71
2022-09-07T16:25:42.252Z,27.72
2022-09-07T16:28:08.879Z,27.45
2022-09-07T16:30:39.093Z,27.35
2022-09-07T16:33:05.617Z,27.39
2022-09-07T16:35:32.942Z,27.58
2022-09-07T16:40:46.478Z,27.62
2022-09-07T16:43:12.960Z,27.52
2022-09-07T16:48:25.957Z,27.30
2022-09-07T16:51:00.292Z,27.34
2022-09-07T16:53:29.503Z,27.59
2022-09-07T16:56:06.091Z,27.93
2022-09-07T16:58:38.778Z,27.62
2022-09-07T17:01:12.542Z,27.51
2022-09-07T17:03:39.959Z,27.58
2022-09-07T17:06:15.250Z,27.78
2022-09-07T17:08:42.964Z,27.88
2022-09-07T17:11:18.881Z,27.97
2022-09-07T17:13:46.638Z,28.21
2022-09-07T17:16:21.738Z,28.36
2022-09-07T17:21:37.872Z,28.41
2022-09-07T17:24:06.482Z,28.19
2022-09-07T17:26:33.844Z,27.73
2022-09-07T17:29:00.874Z,27.69
2022-09-07T17:34:17.426Z,27.17
2022-09-07T17:36:44.163Z,26.90
2022-09-07T17:39:16.019Z,26.82
2022-09-07T17:41:44.071Z,26.40
2022-09-07T17:44:10.893Z,26.19
2022-09-07T17:46:37.442Z,26.11
2022-09-07T17:49:04.131Z,25.98
2022-09-07T17:51:32.718Z,25.75
2022-09-07T17:57:35.833Z,25.31
2022-09-07T18:00:14.297Z,25.09
2022-09-07T18:02:40.733Z,24.90
2022-09-07T18:05:07.597Z,24.73
2022-09-07T18:07:34.996Z,24.44
2022-09-07T18:10:01.486Z,24.27
2022-09-07T18:12:27.951Z,24.18
2022-09-07T18:14:54.354Z,24.05
2022-09-07T18:17:20.785Z,23.97
2022-09-07T18:19:47.130Z,23.76
2022-09-07T18:22:13.872Z,23.69
2022-09-07T18:24:41.951Z,23.61
2022-09-07T18:27:09.680Z,23.52
2022-09-07T18:29:36.129Z,23.52
2022-09-07T18:32:05.571Z,23.47
2022-09-07T18:34:34.111Z,23.47
2022-09-07T18:37:00.900Z,23.50
2022-09-07T18:39:27.574Z,23.36
2022-09-07T18:41:54.957Z,23.29
2022-09-07T18:47:08.693Z,23.29
2022-09-07T18:49:35.160Z,23.19
2022-09-07T18:54:48.222Z,22.84
2022-09-07T18:57:15.495Z,22.78
2022-09-07T18:59:42.032Z,22.61
2022-09-07T19:02:09.655Z,22.68
2022-09-07T19:07:27.519Z,22.46
2022-09-07T19:09:56.233Z,22.56
2022-09-07T19:12:24.246Z,22.59
2022-09-07T19:14:50.946Z,22.48
2022-09-07T19:17:17.849Z,22.46
2022-09-07T19:19:44.251Z,22.53
2022-09-07T19:22:10.595Z,22.39
2022-09-07T19:24:37.413Z,22.40
2022-09-07T19:27:03.890Z,22.46
2022-09-07T19:29:30.478Z,22.29
2022-09-07T19:32:06.869Z,22.19
2022-09-07T19:34:36.204Z,22.10
2022-09-07T19:37:05.630Z,21.96
2022-09-07T19:39:32.314Z,21.98
2022-09-07T19:41:59.158Z,21.95
2022-09-07T19:44:25.691Z,21.83
2022-09-07T19:46:52.255Z,21.85
2022-09-07T19:49:19.055Z,21.74
2022-09-07T19:51:45.845Z,21.77
2022-09-07T19:54:13.496Z,21.69
2022-09-07T19:56:42.633Z,21.74
2022-09-07T19:59:09.443Z,21.60
2022-09-07T20:01:36.191Z,21.51
2022-09-07T20:04:06.648Z,21.40
2022-09-07T20:06:34.595Z,21.41
2022-09-07T20:09:01.833Z,21.42
2022-09-07T20:11:28.850Z,21.37
2022-09-07T20:13:57.038Z,21.20
2022-09-07T20:16:25.476Z,21.19
2022-09-07T20:18:52.070Z,21.00
2022-09-07T20:21:23.451Z,20.97
2022-09-07T20:23:50.660Z,20.84
2022-09-07T20:26:19.453Z,20.80
2022-09-07T20:28:46.447Z,20.72
2022-09-07T20:31:15.429Z,20.68
2022-09-07T20:33:43.333Z,20.71
2022-09-07T20:36:12.520Z,20.65
2022-09-07T20:38:40.999Z,20.56
2022-09-07T20:41:09.799Z,20.63
2022-09-07T20:43:36.167Z,20.61
2022-09-07T20:46:02.647Z,20.66
2022-09-07T20:48:29.140Z,20.68
2022-09-07T20:50:56.615Z,20.52
2022-09-07T20:53:23.205Z,20.55
2022-09-07T20:56:02.015Z,20.49
2022-09-07T20:58:29.077Z,20.36
2022-09-07T21:00:55.640Z,20.32
2022-09-07T21:03:22.886Z,20.35
2022-09-07T21:05:49.424Z,20.45
2022-09-07T21:08:16.912Z,20.25
2022-09-07T21:10:46.266Z,20.49
2022-09-07T21:13:13.552Z,20.39
2022-09-07T21:15:45.061Z,20.22
2022-09-07T21:18:15.442Z,20.04
2022-09-07T21:20:52.813Z,20.04
2022-09-07T21:23:31.693Z,20.00
2022-09-07T21:25:58.358Z,19.90
2022-09-07T21:28:26.244Z,19.85
2022-09-07T21:31:00.713Z,19.93
2022-09-07T21:33:30.780Z,20.05
2022-09-07T21:36:06.802Z,20.05
2022-09-07T21:38:37.640Z,19.95
2022-09-07T21:41:11.329Z,19.95
2022-09-07T21:43:38.719Z,19.80
2022-09-07T21:46:12.275Z,19.90
2022-09-07T21:48:39.234Z,19.80
2022-09-07T21:51:06.178Z,19.90
2022-09-07T21:53:33.384Z,19.93
2022-09-07T21:56:05.256Z,19.83
2022-09-07T21:58:32.577Z,19.98
2022-09-07T22:01:03.185Z,19.98
2022-09-07T22:03:29.745Z,19.84
2022-09-07T22:05:56.172Z,19.71
2022-09-07T22:08:22.763Z,19.69
2022-09-07T22:10:49.195Z,19.63
2022-09-07T22:13:15.604Z,19.67
2022-09-07T22:15:42.666Z,19.62
2022-09-07T22:18:12.108Z,19.56
2022-09-07T22:20:39.107Z,19.59
2022-09-07T22:23:05.949Z,19.53
2022-09-07T22:25:33.252Z,19.34
2022-09-07T22:27:59.667Z,19.29
2022-09-07T22:30:26.084Z,19.32
2022-09-07T22:32:52.510Z,19.41
2022-09-07T22:35:20.373Z,19.28
2022-09-07T22:37:46.791Z,19.25
2022-09-07T22:40:14.748Z,19.26
2022-09-07T22:42:41.808Z,19.29
2022-09-07T22:45:08.754Z,19.23
2022-09-07T22:47:35.112Z,19.25
2022-09-07T22:50:01.676Z,19.23
2022-09-07T22:52:28.250Z,19.29
2022-09-07T22:54:54.669Z,19.36
2022-09-07T22:57:21.134Z,19.35
2022-09-07T22:59:47.529Z,19.34
2022-09-07T23:02:14.027Z,19.26
2022-09-07T23:04:40.503Z,19.22
2022-09-07T23:07:07.667Z,19.29
2022-09-07T23:09:34.088Z,19.28
2022-09-07T23:12:00.523Z,19.23
2022-09-07T23:14:26.874Z,19.26
2022-09-07T23:16:53.378Z,19.23
2022-09-07T23:19:20.342Z,19.29
2022-09-07T23:21:47.383Z,19.23
2022-09-07T23:24:16.093Z,19.26
2022-09-07T23:26:43.144Z,19.19
2022-09-07T23:29:11.356Z,19.23
2022-09-07T23:31:37.836Z,19.26
2022-09-07T23:34:04.914Z,19.23
2022-09-07T23:36:31.466Z,19.20
2022-09-07T23:38:59.474Z,19.20
2022-09-07T23:41:27.138Z,19.11
2022-09-07T23:43:54.357Z,19.19
2022-09-07T23:46:21.089Z,19.20
2022-09-07T23:48:48.419Z,19.29
2022-09-07T23:51:18.867Z,19.39
2022-09-07T23:53:49.505Z,19.36
2022-09-07T23:56:15.951Z,19.53
